aviador You're here:

GMTA Decoded Metar

AL HOCIEMA in MOROCCO
Report Time2018-01-16 20:00:00
UTC Time2018-01-16 21:05:29
Flight Rules vfr VFR
Wind200° at 04 kt
W.Decomp.*RWY 17: 3.4 kt HW 2.1 kt RCW
W.Rank200° ranks 7
Current wind is above 200° avg. (3.2)
Visibility9999 m
Phenomena:N/A
Clouds:N/A
Expected CloudBase > 1,600 ft AGL from Temp-Dew spread
CeilingNone
Temp10°C (ISA -5)
Dew Point06°C (76% RH)
AAT7.6°C
QNH1026 hPa
Density Alt-853 ft
Elevation46 ft
Report Wrong Elevation
Raw Report
GMTA 162000Z 20004KT CAVOK 10/06 Q1026 NOSIG=

Extra information for GMTA:More info

Metar Taf Metar & Taf Last 4 Metars F.Rules Stats Wind Profile Meteogram Temp Stats Airport Information Weather charts Add Link Nearby VenuesMetar ALERT Operation Metar Decoded Social comments